createdAt,value
2018-07-21T00:02:13.734Z,5.20
2018-07-21T00:04:42.839Z,6.13
2018-07-21T00:07:12.294Z,8.13
2018-07-21T00:09:41.514Z,6.07
2018-07-21T00:12:10.715Z,5.30
2018-07-21T00:14:39.835Z,5.33
2018-07-21T00:17:09.180Z,5.73
2018-07-21T00:19:38.317Z,5.57
2018-07-21T00:22:08.114Z,5.37
2018-07-21T00:24:37.203Z,5.17
2018-07-21T00:27:06.423Z,6.17
2018-07-21T00:29:35.634Z,5.10
2018-07-21T00:32:05.023Z,5.03
2018-07-21T00:34:34.084Z,5.67
2018-07-21T00:37:04.015Z,5.27
2018-07-21T00:39:33.308Z,8.40
2018-07-21T00:42:02.603Z,5.70
2018-07-21T00:44:31.759Z,6.13
2018-07-21T00:47:00.741Z,5.40
2018-07-21T00:49:29.869Z,5.73
2018-07-21T00:51:59.029Z,5.43
2018-07-21T00:54:28.379Z,7.00
2018-07-21T00:56:57.669Z,6.27
2018-07-21T00:59:26.909Z,5.77
2018-07-21T01:01:56.127Z,6.27
2018-07-21T01:04:26.120Z,7.97
2018-07-21T01:06:55.319Z,6.53
2018-07-21T01:09:24.366Z,5.27
2018-07-21T01:11:53.792Z,6.03
2018-07-21T01:14:23.045Z,6.10
2018-07-21T01:16:52.819Z,6.17
2018-07-21T01:19:22.164Z,5.93
2018-07-21T01:21:52.110Z,9.53
2018-07-21T01:24:21.206Z,6.70
2018-07-21T01:26:50.497Z,8.00
2018-07-21T01:29:19.795Z,6.30
2018-07-21T01:31:49.125Z,6.00
2018-07-21T01:34:18.508Z,8.50
2018-07-21T01:36:47.735Z,6.27
2018-07-21T01:39:17.052Z,7.87
2018-07-21T01:41:46.454Z,6.53
2018-07-21T01:44:16.245Z,6.23
2018-07-21T01:46:45.840Z,6.07
2018-07-21T01:49:15.169Z,6.80
2018-07-21T01:51:44.344Z,6.70
2018-07-21T01:54:13.630Z,8.07
2018-07-21T01:56:42.753Z,7.67
2018-07-21T01:59:12.076Z,6.40
2018-07-21T02:01:41.294Z,6.70
2018-07-21T02:04:10.552Z,6.87
2018-07-21T02:06:39.690Z,6.80
2018-07-21T02:09:10.237Z,7.10
2018-07-21T02:11:39.606Z,6.77
2018-07-21T02:14:09.329Z,6.80
2018-07-21T02:16:38.502Z,7.00
2018-07-21T02:19:07.404Z,7.33
2018-07-21T02:21:36.689Z,7.23
2018-07-21T02:24:05.976Z,7.00
2018-07-21T02:26:35.174Z,7.10
2018-07-21T02:29:04.485Z,7.10
2018-07-21T02:31:34.692Z,7.67
2018-07-21T02:34:03.944Z,7.00
2018-07-21T02:36:33.073Z,6.53
2018-07-21T02:39:02.340Z,6.53
2018-07-21T02:41:31.241Z,6.80
2018-07-21T02:44:00.321Z,7.97
2018-07-21T02:46:30.336Z,6.90
2018-07-21T02:48:59.094Z,7.60
2018-07-21T02:51:28.063Z,7.40
2018-07-21T02:53:57.272Z,6.63
2018-07-21T02:56:26.483Z,7.00
2018-07-21T02:58:55.654Z,7.40
2018-07-21T03:01:24.875Z,7.07
2018-07-21T03:03:54.421Z,7.50
2018-07-21T03:06:24.101Z,8.33
2018-07-21T03:08:53.298Z,7.77
2018-07-21T03:11:22.618Z,7.63
2018-07-21T03:13:51.813Z,8.03
2018-07-21T03:16:20.933Z,6.70
2018-07-21T03:18:49.904Z,8.23
2018-07-21T03:21:19.081Z,8.27
2018-07-21T03:23:48.226Z,7.90
2018-07-21T03:26:17.198Z,8.10
2018-07-21T03:28:46.375Z,8.23
2018-07-21T03:31:15.600Z,8.90
2018-07-21T03:33:44.679Z,9.53
2018-07-21T03:36:13.829Z,8.70
2018-07-21T03:38:43.067Z,8.77
2018-07-21T03:41:12.223Z,8.70
2018-07-21T03:43:41.446Z,9.27
2018-07-21T03:46:10.619Z,8.83
2018-07-21T03:48:39.784Z,8.60
2018-07-21T03:51:10.056Z,8.43
2018-07-21T03:53:39.493Z,8.67
2018-07-21T03:56:08.711Z,10.50
2018-07-21T03:58:37.968Z,7.87
2018-07-21T04:01:07.981Z,8.10
2018-07-21T04:03:37.133Z,8.60
2018-07-21T04:06:07.478Z,9.03
2018-07-21T04:08:36.893Z,9.00
2018-07-21T04:11:06.082Z,9.60
2018-07-21T04:13:36.003Z,10.07
2018-07-21T04:16:05.564Z,9.77
2018-07-21T04:18:34.821Z,9.70
2018-07-21T04:21:04.811Z,10.53
2018-07-21T04:23:33.975Z,9.70
2018-07-21T04:26:03.078Z,10.73
2018-07-21T04:28:31.842Z,10.87
2018-07-21T04:31:01.611Z,11.30
2018-07-21T04:33:30.839Z,13.37
2018-07-21T04:35:59.968Z,12.37
2018-07-21T04:38:29.330Z,13.53
2018-07-21T04:40:58.648Z,12.33
2018-07-21T04:43:27.838Z,13.30
2018-07-21T04:45:57.875Z,12.20
2018-07-21T04:48:26.993Z,13.07
2018-07-21T04:50:56.233Z,13.80
2018-07-21T04:53:25.413Z,13.77
2018-07-21T04:55:55.116Z,13.57
2018-07-21T04:58:24.689Z,13.10
2018-07-21T05:00:53.572Z,13.67
2018-07-21T05:03:22.632Z,15.37
2018-07-21T05:05:51.865Z,15.67
2018-07-21T05:08:21.182Z,16.13
2018-07-21T05:10:50.470Z,18.33
2018-07-21T05:13:19.603Z,19.53
2018-07-21T05:15:48.767Z,18.63
2018-07-21T05:18:18.920Z,17.60
2018-07-21T05:20:48.038Z,18.87
2018-07-21T05:23:17.408Z,19.07
2018-07-21T05:25:46.783Z,18.93
2018-07-21T05:28:16.201Z,19.27
2018-07-21T05:30:46.241Z,20.73
2018-07-21T05:33:16.029Z,20.87
2018-07-21T05:35:45.127Z,22.03
2018-07-21T05:38:14.442Z,18.93
2018-07-21T05:40:43.699Z,19.37
2018-07-21T05:43:12.883Z,20.90
2018-07-21T05:45:42.192Z,17.77
2018-07-21T05:48:11.488Z,19.10
2018-07-21T05:50:40.811Z,18.40
2018-07-21T05:53:10.725Z,17.43
2018-07-21T05:55:40.009Z,17.30
2018-07-21T05:58:09.746Z,18.17
2018-07-21T06:00:39.261Z,19.97
2018-07-21T06:03:08.250Z,20.27
2018-07-21T06:05:37.169Z,18.90
2018-07-21T06:08:06.437Z,20.13
2018-07-21T06:10:35.650Z,18.43
2018-07-21T06:13:05.029Z,18.50
2018-07-21T06:15:34.459Z,16.90
2018-07-21T06:18:03.898Z,17.83
2018-07-21T06:20:33.135Z,16.77
2018-07-21T06:23:02.341Z,17.00
2018-07-21T06:25:38.120Z,16.13
2018-07-21T06:28:07.297Z,15.17
2018-07-21T06:30:36.557Z,16.37
2018-07-21T06:33:06.090Z,17.97
2018-07-21T06:35:35.694Z,18.00
2018-07-21T06:38:04.974Z,16.83
2018-07-21T06:40:34.185Z,17.97
2018-07-21T06:43:03.357Z,17.30
2018-07-21T06:45:32.621Z,15.60
2018-07-21T06:48:01.758Z,17.30
2018-07-21T06:50:31.006Z,17.83
2018-07-21T06:53:00.226Z,15.27
2018-07-21T06:55:30.238Z,14.00
2018-07-21T06:57:59.464Z,14.23
2018-07-21T07:00:28.675Z,15.63
2018-07-21T07:02:57.768Z,13.30
2018-07-21T07:05:27.084Z,14.13
2018-07-21T07:07:56.226Z,14.37
2018-07-21T07:10:25.482Z,13.43
2018-07-21T07:12:54.618Z,12.27
2018-07-21T07:15:23.848Z,12.43
2018-07-21T07:17:53.038Z,14.27
2018-07-21T07:20:22.374Z,14.33
2018-07-21T07:22:52.223Z,13.87
2018-07-21T07:25:21.190Z,13.67
2018-07-21T07:27:50.616Z,13.40
2018-07-21T07:30:19.956Z,13.27
2018-07-21T07:32:54.187Z,11.73
2018-07-21T07:35:24.316Z,13.23
2018-07-21T07:38:00.271Z,11.30
2018-07-21T07:40:29.598Z,12.47
2018-07-21T07:42:58.678Z,13.63
2018-07-21T07:45:27.918Z,14.33
2018-07-21T07:47:57.310Z,12.03
2018-07-21T07:50:26.384Z,12.87
2018-07-21T07:52:55.587Z,13.80
2018-07-21T07:55:27.001Z,13.53
2018-07-21T07:57:56.231Z,11.33
2018-07-21T08:00:26.385Z,13.07
2018-07-21T08:02:55.516Z,14.10
2018-07-21T08:05:24.730Z,12.03
2018-07-21T08:07:53.984Z,14.63
2018-07-21T08:10:23.203Z,15.00
2018-07-21T08:12:52.857Z,13.27
2018-07-21T08:15:22.795Z,14.53
2018-07-21T08:17:51.967Z,16.20
2018-07-21T08:20:22.466Z,14.10
2018-07-21T08:22:51.610Z,14.57
2018-07-21T08:25:20.767Z,14.00
2018-07-21T08:27:50.127Z,12.13
2018-07-21T08:30:19.229Z,13.50
2018-07-21T08:32:48.562Z,13.50
2018-07-21T08:35:17.924Z,15.77
2018-07-21T08:37:47.157Z,14.87
2018-07-21T08:40:16.989Z,13.30
2018-07-21T08:42:46.307Z,14.93
2018-07-21T08:45:15.595Z,13.93
2018-07-21T08:47:44.863Z,14.70
2018-07-21T08:50:14.773Z,14.63
2018-07-21T08:52:44.126Z,14.83
2018-07-21T08:55:13.513Z,14.23
2018-07-21T08:57:42.602Z,16.50
2018-07-21T09:00:12.146Z,14.43
2018-07-21T09:02:41.643Z,15.23
2018-07-21T09:05:10.860Z,14.43
2018-07-21T09:07:39.972Z,13.50
2018-07-21T09:10:10.222Z,12.77
2018-07-21T09:12:39.661Z,13.67
2018-07-21T09:15:08.887Z,11.80
2018-07-21T09:17:38.046Z,14.23
2018-07-21T09:20:07.241Z,14.07
2018-07-21T09:22:36.361Z,12.77
2018-07-21T09:25:05.552Z,14.03
2018-07-21T09:27:34.520Z,14.30
2018-07-21T09:30:03.664Z,11.70
2018-07-21T09:32:39.757Z,12.17
2018-07-21T09:35:09.926Z,12.00
2018-07-21T09:37:39.380Z,12.27
2018-07-21T09:40:08.811Z,14.73
2018-07-21T09:42:38.008Z,13.33
2018-07-21T09:45:07.312Z,11.83
2018-07-21T09:47:36.414Z,10.60
2018-07-21T09:50:06.854Z,10.33
2018-07-21T09:52:36.107Z,11.80
2018-07-21T09:55:06.649Z,8.57
2018-07-21T09:57:35.979Z,10.63
2018-07-21T10:00:07.241Z,9.00
2018-07-21T10:02:37.247Z,10.80
2018-07-21T10:05:06.430Z,11.57
2018-07-21T10:07:35.989Z,11.37
2018-07-21T10:10:05.325Z,9.17
2018-07-21T10:12:34.964Z,8.37
2018-07-21T10:15:04.342Z,8.87
2018-07-21T10:17:33.544Z,10.63
2018-07-21T10:20:03.144Z,9.47
2018-07-21T10:22:32.343Z,10.37
2018-07-21T10:25:06.830Z,8.73
2018-07-21T10:28:38.954Z,7.53
2018-07-21T10:31:08.220Z,6.87
2018-07-21T10:33:37.726Z,7.57
2018-07-21T10:36:07.260Z,8.50
2018-07-21T10:38:36.483Z,7.50
2018-07-21T10:41:05.552Z,7.70
2018-07-21T10:43:34.888Z,10.40
2018-07-21T10:46:04.073Z,11.03
2018-07-21T10:48:33.239Z,7.80
2018-07-21T10:51:02.459Z,11.57
2018-07-21T10:53:31.676Z,8.97
2018-07-21T10:56:01.038Z,8.30
2018-07-21T10:58:30.217Z,7.33
2018-07-21T11:00:59.374Z,7.80
2018-07-21T11:03:28.525Z,10.43
2018-07-21T11:05:58.432Z,6.80
2018-07-21T11:08:27.675Z,7.55
2018-07-21T11:10:57.272Z,7.10
2018-07-21T11:13:26.624Z,6.47
2018-07-21T11:15:57.572Z,6.97
2018-07-21T11:18:26.911Z,6.00
2018-07-21T11:20:56.172Z,7.20
2018-07-21T11:23:25.534Z,7.93
2018-07-21T11:25:54.919Z,6.70
2018-07-21T11:28:24.068Z,6.37
2018-07-21T11:30:53.412Z,7.43
2018-07-21T11:33:22.494Z,6.25
2018-07-21T11:35:51.876Z,5.65
2018-07-21T11:38:21.575Z,6.17
2018-07-21T11:40:50.881Z,5.87
2018-07-21T11:43:20.107Z,6.58
2018-07-21T11:45:49.292Z,7.00
2018-07-21T11:48:18.520Z,4.97
2018-07-21T11:50:47.798Z,5.25
2018-07-21T11:53:17.032Z,5.58
2018-07-21T11:55:46.145Z,4.90
2018-07-21T11:58:15.392Z,8.50
2018-07-21T12:00:44.624Z,6.00
2018-07-21T12:03:13.776Z,5.25
2018-07-21T12:05:43.534Z,6.42
2018-07-21T12:08:12.539Z,6.67
2018-07-21T12:10:41.857Z,6.62
2018-07-21T12:13:11.214Z,5.10
2018-07-21T12:15:40.480Z,5.45
2018-07-21T12:18:09.594Z,5.72
2018-07-21T12:20:38.678Z,7.28
2018-07-21T12:23:07.892Z,4.95
2018-07-21T12:25:37.285Z,5.12
2018-07-21T12:28:06.359Z,6.12
2018-07-21T12:30:35.591Z,6.62
2018-07-21T12:33:04.826Z,5.85
2018-07-21T12:35:33.916Z,4.70
2018-07-21T12:38:03.120Z,5.53
2018-07-21T12:40:32.272Z,6.12
2018-07-21T12:43:01.415Z,6.65
2018-07-21T12:45:30.628Z,7.22
2018-07-21T12:48:00.507Z,6.85
2018-07-21T12:50:30.686Z,5.65
2018-07-21T12:52:59.884Z,5.58
2018-07-21T12:55:29.163Z,6.05
2018-07-21T12:57:58.347Z,6.17
2018-07-21T13:00:27.585Z,8.03
2018-07-21T13:02:56.806Z,5.12
2018-07-21T13:05:25.584Z,5.20
2018-07-21T13:07:54.678Z,7.40
2018-07-21T13:10:24.238Z,5.45
2018-07-21T13:12:53.431Z,5.35
2018-07-21T13:15:22.596Z,5.00
2018-07-21T13:17:51.880Z,5.08
2018-07-21T13:20:20.989Z,6.80
2018-07-21T13:22:49.905Z,7.58
2018-07-21T13:25:19.138Z,5.53
2018-07-21T13:27:48.265Z,5.20
2018-07-21T13:30:17.613Z,7.05
2018-07-21T13:32:46.867Z,5.40
2018-07-21T13:35:16.155Z,5.72
2018-07-21T13:37:45.366Z,6.85
2018-07-21T13:40:14.565Z,4.62
2018-07-21T13:42:43.648Z,5.22
2018-07-21T13:45:13.560Z,5.30
2018-07-21T13:47:43.403Z,8.48
2018-07-21T13:50:12.522Z,5.00
2018-07-21T13:52:41.660Z,4.83
2018-07-21T13:55:10.847Z,5.42
2018-07-21T13:57:40.090Z,4.72
2018-07-21T14:00:09.392Z,4.90
2018-07-21T14:02:38.553Z,4.70
2018-07-21T14:05:07.861Z,4.58
2018-07-21T14:07:37.203Z,7.12
2018-07-21T14:10:06.555Z,5.33
2018-07-21T14:12:36.031Z,6.40
2018-07-21T14:15:05.991Z,6.05
2018-07-21T14:17:35.309Z,8.80
2018-07-21T14:20:10.262Z,7.05
2018-07-21T14:22:45.192Z,5.80
2018-07-21T14:25:30.571Z,6.00
2018-07-21T14:28:00.028Z,7.08
2018-07-21T14:30:29.270Z,6.72
2018-07-21T14:32:58.475Z,6.17
2018-07-21T14:35:27.612Z,5.92
2018-07-21T14:37:56.912Z,8.08
2018-07-21T14:40:26.325Z,8.33
2018-07-21T14:42:55.540Z,6.97
2018-07-21T14:45:24.830Z,6.12
2018-07-21T14:47:54.135Z,5.78
2018-07-21T14:50:23.555Z,7.00
2018-07-21T14:52:52.889Z,6.28
2018-07-21T14:55:22.159Z,5.33
2018-07-21T14:57:51.476Z,6.47
2018-07-21T15:00:20.603Z,5.15
2018-07-21T15:02:49.874Z,6.37
2018-07-21T15:07:54.601Z,10.63
2018-07-21T15:10:23.779Z,7.03
2018-07-21T15:12:52.985Z,6.60
2018-07-21T15:15:22.182Z,5.70
2018-07-21T15:17:51.390Z,7.40
2018-07-21T15:20:20.624Z,4.75
2018-07-21T15:22:49.786Z,5.15
2018-07-21T15:25:18.913Z,5.67
2018-07-21T15:27:48.058Z,6.72
2018-07-21T15:30:18.099Z,4.72
2018-07-21T15:32:47.493Z,5.15
2018-07-21T15:35:16.749Z,5.45
2018-07-21T15:37:45.984Z,5.50
2018-07-21T15:40:15.077Z,5.72
2018-07-21T15:42:44.132Z,6.50
2018-07-21T15:45:13.463Z,5.75
2018-07-21T15:47:42.560Z,6.50
2018-07-21T15:50:11.827Z,5.10
2018-07-21T15:52:40.974Z,6.22
2018-07-21T15:55:10.643Z,4.78
2018-07-21T15:57:39.867Z,5.87
2018-07-21T16:00:09.142Z,5.33
2018-07-21T16:02:38.339Z,4.90
2018-07-21T16:05:07.572Z,6.42
2018-07-21T16:07:36.973Z,4.92
2018-07-21T16:10:06.257Z,4.78
2018-07-21T16:12:35.528Z,6.10
2018-07-21T16:15:05.451Z,5.12
2018-07-21T16:17:34.616Z,6.35
2018-07-21T16:20:04.170Z,6.23
2018-07-21T16:22:33.550Z,5.07
2018-07-21T16:25:02.808Z,5.77
2018-07-21T16:27:32.119Z,6.17
2018-07-21T16:30:01.888Z,7.97
2018-07-21T16:32:31.139Z,4.75
2018-07-21T16:35:00.303Z,4.73
2018-07-21T16:37:29.375Z,4.65
2018-07-21T16:39:58.562Z,4.80
2018-07-21T16:42:27.801Z,7.17
2018-07-21T16:44:57.120Z,4.20
2018-07-21T16:47:26.407Z,4.60
2018-07-21T16:49:55.802Z,4.90
2018-07-21T16:52:24.869Z,4.80
2018-07-21T16:54:54.537Z,5.17
2018-07-21T16:57:23.869Z,4.90
2018-07-21T16:59:52.994Z,6.33
2018-07-21T17:02:22.228Z,6.55
2018-07-21T17:04:51.947Z,5.12
2018-07-21T17:07:21.217Z,5.12
2018-07-21T17:09:50.447Z,5.43
2018-07-21T17:12:19.543Z,5.87
2018-07-21T17:14:48.884Z,4.60
2018-07-21T17:17:18.014Z,4.78
2018-07-21T17:19:47.250Z,4.63
2018-07-21T17:22:16.350Z,8.00
2018-07-21T17:24:45.681Z,9.07
2018-07-21T17:27:15.257Z,7.22
2018-07-21T17:29:44.649Z,4.45
2018-07-21T17:32:13.733Z,6.33
2018-07-21T17:34:42.892Z,5.05
2018-07-21T17:37:12.102Z,7.17
2018-07-21T17:39:41.315Z,5.45
2018-07-21T17:42:10.735Z,7.70
2018-07-21T17:44:40.485Z,6.30
2018-07-21T17:47:09.557Z,6.70
2018-07-21T17:49:38.366Z,6.20
2018-07-21T17:52:07.539Z,6.10
2018-07-21T17:54:37.841Z,5.57
2018-07-21T17:57:06.955Z,7.20
2018-07-21T17:59:36.095Z,4.93
2018-07-21T18:02:05.319Z,4.30
2018-07-21T18:04:35.184Z,4.60
2018-07-21T18:07:04.405Z,6.27
2018-07-21T18:09:33.612Z,4.40
2018-07-21T18:12:02.856Z,4.78
2018-07-21T18:14:31.913Z,4.37
2018-07-21T18:17:01.009Z,6.23
2018-07-21T18:19:30.097Z,5.87
2018-07-21T18:21:59.305Z,7.33
2018-07-21T18:24:29.142Z,5.77
2018-07-21T18:26:58.312Z,4.87
2018-07-21T18:29:27.523Z,4.43
2018-07-21T18:31:57.625Z,6.07
2018-07-21T18:34:26.786Z,4.47
2018-07-21T18:36:56.045Z,4.63
2018-07-21T18:39:25.324Z,5.03
2018-07-21T18:41:54.637Z,4.17
2018-07-21T18:44:23.748Z,4.97
2018-07-21T18:46:53.337Z,5.27
2018-07-21T18:49:22.756Z,5.43
2018-07-21T18:51:51.947Z,5.20
2018-07-21T18:54:21.237Z,4.57
2018-07-21T18:56:50.500Z,4.97
2018-07-21T18:59:19.638Z,6.00
2018-07-21T19:01:49.297Z,5.93
2018-07-21T19:04:18.474Z,6.53
2018-07-21T19:06:47.873Z,4.23
2018-07-21T19:09:16.955Z,5.17
2018-07-21T19:11:50.418Z,4.00
2018-07-21T19:14:19.604Z,5.37
2018-07-21T19:16:48.956Z,5.20
2018-07-21T19:19:18.256Z,4.10
2018-07-21T19:21:47.997Z,4.73
2018-07-21T19:24:17.164Z,4.93
2018-07-21T19:26:51.494Z,4.57
2018-07-21T19:29:20.786Z,4.20
2018-07-21T19:31:55.289Z,4.93
2018-07-21T19:34:24.390Z,6.60
2018-07-21T19:36:53.518Z,4.27
2018-07-21T19:39:22.613Z,4.67
2018-07-21T19:41:57.120Z,4.23
2018-07-21T19:44:26.486Z,5.33
2018-07-21T19:46:55.733Z,5.60
2018-07-21T19:49:24.965Z,6.10
2018-07-21T19:51:54.081Z,5.63
2018-07-21T19:54:23.420Z,5.87
2018-07-21T19:56:52.946Z,6.33
2018-07-21T19:59:22.218Z,4.40
2018-07-21T20:01:51.402Z,5.07
2018-07-21T20:04:20.660Z,5.27
2018-07-21T20:06:49.786Z,3.90
2018-07-21T20:09:19.162Z,3.90
2018-07-21T20:11:49.084Z,5.10
2018-07-21T20:14:18.321Z,3.90
2018-07-21T20:16:47.490Z,5.43
2018-07-21T20:19:16.680Z,5.40
2018-07-21T20:21:45.815Z,3.37
2018-07-21T20:24:16.082Z,4.27
2018-07-21T20:26:45.226Z,3.43
2018-07-21T20:29:14.409Z,3.07
2018-07-21T20:31:44.578Z,6.93
2018-07-21T20:34:13.364Z,3.70
2018-07-21T20:36:42.751Z,3.50
2018-07-21T20:39:12.296Z,3.87
2018-07-21T20:41:41.573Z,3.50
2018-07-21T20:44:10.752Z,3.57
2018-07-21T20:46:40.273Z,4.57
2018-07-21T20:49:09.653Z,3.80
2018-07-21T20:51:38.814Z,3.20
2018-07-21T20:54:07.997Z,4.37
2018-07-21T20:56:37.210Z,3.83
2018-07-21T20:59:06.443Z,3.70
2018-07-21T21:01:35.579Z,3.20
2018-07-21T21:04:05.824Z,3.50
2018-07-21T21:06:35.055Z,5.27
2018-07-21T21:09:06.002Z,3.63
2018-07-21T21:11:35.144Z,3.97
2018-07-21T21:14:04.613Z,3.27
2018-07-21T21:16:33.742Z,2.90
2018-07-21T21:19:02.912Z,3.03
2018-07-21T21:21:32.329Z,4.10
2018-07-21T21:24:01.550Z,2.77
2018-07-21T21:26:30.866Z,3.03
2018-07-21T21:29:00.130Z,4.83
2018-07-21T21:31:29.314Z,3.93
2018-07-21T21:33:59.001Z,3.70
2018-07-21T21:36:28.132Z,3.33
2018-07-21T21:38:57.312Z,3.03
2018-07-21T21:41:26.514Z,4.43
2018-07-21T21:43:55.662Z,4.73
2018-07-21T21:46:24.916Z,3.73
2018-07-21T21:48:54.210Z,3.10
2018-07-21T21:51:23.558Z,3.27
2018-07-21T21:53:52.865Z,3.33
2018-07-21T21:56:22.164Z,3.67
2018-07-21T21:58:51.358Z,4.90
2018-07-21T22:01:20.728Z,3.70
2018-07-21T22:03:49.916Z,4.60
2018-07-21T22:06:19.189Z,4.23
2018-07-21T22:08:48.287Z,4.87
2018-07-21T22:11:17.483Z,3.83
2018-07-21T22:13:46.794Z,4.33
2018-07-21T22:16:16.100Z,3.60
2018-07-21T22:18:45.259Z,3.77
2018-07-21T22:21:14.988Z,4.37
2018-07-21T22:23:44.088Z,4.13
2018-07-21T22:26:13.865Z,8.13
2018-07-21T22:28:42.976Z,4.07
2018-07-21T22:31:11.919Z,4.63
2018-07-21T22:33:41.067Z,4.13
2018-07-21T22:36:10.144Z,5.77
2018-07-21T22:38:39.359Z,5.20
2018-07-21T22:41:08.476Z,5.70
2018-07-21T22:43:37.987Z,4.10
2018-07-21T22:46:07.077Z,5.03
2018-07-21T22:48:36.257Z,4.23
2018-07-21T22:51:05.642Z,7.10
2018-07-21T22:53:35.004Z,4.50
2018-07-21T22:56:04.121Z,5.53
2018-07-21T22:58:33.476Z,5.37
2018-07-21T23:01:03.076Z,3.80
2018-07-21T23:03:32.173Z,3.87
2018-07-21T23:06:01.250Z,5.70
2018-07-21T23:08:30.440Z,4.20
2018-07-21T23:10:59.795Z,6.73
2018-07-21T23:13:29.062Z,4.93
2018-07-21T23:15:58.101Z,4.53
2018-07-21T23:18:27.068Z,4.57
2018-07-21T23:20:56.437Z,4.27
2018-07-21T23:23:25.953Z,3.70
2018-07-21T23:25:55.198Z,3.70
2018-07-21T23:28:24.256Z,3.60
2018-07-21T23:30:53.275Z,3.87
2018-07-21T23:33:21.931Z,3.50
2018-07-21T23:35:51.031Z,3.77
2018-07-21T23:38:20.433Z,3.87
2018-07-21T23:40:49.649Z,4.33
2018-07-21T23:43:18.654Z,5.53
2018-07-21T23:45:48.235Z,4.37
2018-07-21T23:48:17.641Z,4.20
2018-07-21T23:50:46.907Z,4.13
2018-07-21T23:53:15.976Z,3.63
2018-07-21T23:55:46.056Z,5.40
2018-07-21T23:58:15.375Z,4.63
